Time;durP1;ratioP1;P1;durP2;ratioP2;P2;SDS_P1;SDS_P2;PMS_P1;PMS_P2;Temp;Humidity;BMP_temperature;BMP_pressure;BME280_temperature;BME280_humidity;BME280_pressure;Samples;Min_cycle;Max_cycle;Signal;HPM_P1;HPM_P2
2022/09/21 00:00:47;;;;;;;1.63;0.60;;;9.20;99.90;;;;;;5134239;27;20050;-81
2022/09/21 00:03:14;;;;;;;0.70;0.38;;;9.20;99.90;;;;;;5134390;27;20175;-81
2022/09/21 00:05:39;;;;;;;2.35;0.50;;;9.10;99.90;;;;;;5121234;27;20121;-82
2022/09/21 00:08:06;;;;;;;1.38;0.57;;;9.10;99.90;;;;;;5137704;27;20555;-81
2022/09/21 00:10:33;;;;;;;2.53;0.73;;;9.10;99.90;;;;;;5138338;27;20038;-81
2022/09/21 00:13:01;;;;;;;1.58;0.50;;;9.10;99.90;;;;;;5137937;27;20495;-81
2022/09/21 00:15:28;;;;;;;4.65;0.95;;;9.10;99.90;;;;;;5137689;27;20046;-81
2022/09/21 00:17:55;;;;;;;3.33;0.90;;;9.10;99.90;;;;;;5137899;27;20054;-81
2022/09/21 00:20:22;;;;;;;2.72;0.82;;;9.00;99.90;;;;;;5120808;27;20045;-81
2022/09/21 00:22:47;;;;;;;2.03;0.95;;;9.10;99.90;;;;;;5120112;27;20087;-81
2022/09/21 00:25:14;;;;;;;1.73;0.98;;;9.10;99.90;;;;;;5120590;27;20038;-81
2022/09/21 00:27:40;;;;;;;2.65;1.30;;;9.10;99.90;;;;;;5137503;27;20065;-81
2022/09/21 00:30:06;;;;;;;2.65;1.00;;;9.10;99.90;;;;;;5137722;27;20161;-81
2022/09/21 00:32:34;;;;;;;3.58;1.50;;;9.10;99.90;;;;;;5137318;27;20049;-81
2022/09/21 00:35:01;;;;;;;1.58;0.93;;;9.10;99.90;;;;;;5137643;27;20437;-81
2022/09/21 00:37:28;;;;;;;3.38;1.40;;;9.10;99.90;;;;;;5117031;27;20095;-81
2022/09/21 00:39:54;;;;;;;3.50;1.17;;;9.10;99.90;;;;;;5121492;27;20061;-81
2022/09/21 00:42:28;;;;;;;4.45;1.50;;;9.20;99.90;;;;;;5099591;27;20500;-81
2022/09/21 00:44:54;;;;;;;4.80;1.50;;;9.20;99.90;;;;;;5100152;27;20087;-81
2022/09/21 00:47:36;;;;;;;6.40;1.80;;;9.20;99.90;;;;;;5116517;27;20039;-81
2022/09/21 00:50:23;;;;;;;4.75;1.60;;;9.20;99.90;;;;;;5100091;27;20039;-81
2022/09/21 00:52:52;;;;;;;3.92;1.20;;;9.20;99.90;;;;;;5116007;27;20084;-81
2022/09/21 00:55:31;;;;;;;3.35;1.27;;;9.10;99.90;;;;;;5099641;27;20035;-81
2022/09/21 00:58:08;;;;;;;4.15;1.63;;;9.20;99.90;;;;;;5116862;27;20107;-81
2022/09/21 01:00:35;;;;;;;3.15;1.40;;;9.10;99.90;;;;;;5116243;27;20046;-81
2022/09/21 01:03:01;;;;;;;3.17;1.13;;;9.10;99.90;;;;;;5116269;27;20081;-82
2022/09/21 01:05:28;;;;;;;1.60;0.85;;;9.10;99.90;;;;;;5116296;27;20103;-81
2022/09/21 01:07:56;;;;;;;2.92;1.00;;;9.10;99.90;;;;;;5115988;27;20036;-81
2022/09/21 01:10:24;;;;;;;2.13;0.75;;;9.00;99.90;;;;;;5116541;27;20032;-81
2022/09/21 01:13:11;;;;;;;46.08;3.38;;;8.90;99.90;;;;;;5098971;27;20038;-81
2022/09/21 01:15:48;;;;;;;23.02;2.58;;;8.90;99.90;;;;;;5115160;27;20164;-81
2022/09/21 01:18:26;;;;;;;2.15;0.80;;;8.80;99.90;;;;;;5116225;27;20074;-81
2022/09/21 01:21:08;;;;;;;4.40;0.90;;;8.70;99.90;;;;;;5115971;27;20085;-81
2022/09/21 01:23:58;;;;;;;2.83;0.97;;;8.60;99.90;;;;;;5099244;27;20051;-81
2022/09/21 01:27:02;;;;;;;3.67;1.02;;;8.60;99.90;;;;;;5115977;27;20512;-81
2022/09/21 01:29:32;;;;;;;2.45;0.70;;;8.60;99.90;;;;;;5098595;27;20092;-81
2022/09/21 01:32:05;;;;;;;1.42;0.50;;;8.50;99.90;;;;;;5115606;27;20042;-81
2022/09/21 01:34:59;;;;;;;1.95;0.65;;;8.40;99.90;;;;;;5115991;27;20118;-81
2022/09/21 01:37:52;;;;;;;8.93;0.65;;;8.30;99.90;;;;;;5115184;27;20088;-81
2022/09/21 01:40:26;;;;;;;8.57;1.00;;;8.20;99.90;;;;;;5098726;27;20084;-81
2022/09/21 01:42:54;;;;;;;47.47;2.95;;;8.10;99.90;;;;;;5115407;27;20035;-81
2022/09/21 01:45:27;;;;;;;23.75;1.38;;;8.00;99.90;;;;;;5115625;27;20043;-81
2022/09/21 01:47:54;;;;;;;3.72;0.50;;;7.90;99.90;;;;;;5098806;27;20036;-81
2022/09/21 01:50:20;;;;;;;1.33;0.60;;;7.90;99.90;;;;;;5098502;27;20038;-81
2022/09/21 01:52:54;;;;;;;1.17;0.60;;;7.90;99.90;;;;;;5115107;27;20035;-81
2022/09/21 01:55:31;;;;;;;1.05;0.57;;;7.90;99.90;;;;;;5115443;27;20130;-81
2022/09/21 01:58:06;;;;;;;1.42;0.50;;;7.90;99.90;;;;;;5115429;27;20146;-81
2022/09/21 02:00:34;;;;;;;1.00;0.50;;;7.90;99.90;;;;;;5114751;27;20553;-81
2022/09/21 02:03:09;;;;;;;4.20;0.80;;;7.90;99.90;;;;;;5097994;27;20046;-81
2022/09/21 02:05:35;;;;;;;0.40;0.20;;;7.90;99.90;;;;;;5115546;27;20035;-81
2022/09/21 02:08:01;;;;;;;19.85;1.42;;;7.90;99.90;;;;;;5115048;27;20037;-81
2022/09/21 02:10:38;;;;;;;13.98;1.05;;;7.80;99.90;;;;;;5115149;27;20480;-81
2022/09/21 02:13:06;;;;;;;5.25;0.43;;;7.80;99.90;;;;;;5115014;27;20401;-81
2022/09/21 02:16:09;;;;;;;0.40;0.35;;;7.70;99.90;;;;;;5114662;27;20071;-81
2022/09/21 02:19:12;;;;;;;0.40;0.20;;;7.70;99.90;;;;;;4997264;28;20605;-81
2022/09/21 02:21:56;;;;;;;0.10;0.10;;;7.70;99.90;;;;;;5114478;27;20400;-81
2022/09/21 02:24:26;;;;;;;0.30;0.30;;;7.70;99.90;;;;;;5115292;27;20054;-81
2022/09/21 02:27:13;;;;;;;48.50;3.05;;;7.70;99.90;;;;;;5114895;27;20046;-81
2022/09/21 02:30:13;;;;;;;26.60;2.10;;;7.80;99.90;;;;;;5114281;27;20051;-81
2022/09/21 02:32:50;;;;;;;23.98;2.92;;;7.80;99.90;;;;;;5114576;27;20729;-81
2022/09/21 02:35:36;;;;;;;5.78;0.77;;;7.80;99.90;;;;;;5097783;27;20499;-81
2022/09/21 02:38:55;;;;;;;5.07;0.65;;;7.70;99.90;;;;;;5114720;27;20038;-81
2022/09/21 02:41:26;;;;;;;0.43;0.43;;;7.70;99.90;;;;;;5012640;28;20041;-81
2022/09/21 02:44:07;;;;;;;3.60;0.30;;;7.60;99.90;;;;;;5012965;28;20046;-81
2022/09/21 02:46:48;;;;;;;0.55;0.40;;;7.60;99.90;;;;;;4996536;28;20049;-81
2022/09/21 02:49:26;;;;;;;0.80;0.50;;;7.60;99.90;;;;;;5013099;28;20041;-81
2022/09/21 02:51:57;;;;;;;0.55;0.50;;;7.60;99.90;;;;;;5012260;28;20542;-81
2022/09/21 02:54:27;;;;;;;82.53;4.20;;;7.50;99.90;;;;;;5013326;28;20133;-81
2022/09/21 02:56:54;;;;;;;0.70;0.55;;;7.50;99.90;;;;;;5012757;28;20124;-81
2022/09/21 02:59:22;;;;;;;0.35;0.28;;;7.50;99.90;;;;;;5012253;28;20489;-81
2022/09/21 03:01:48;;;;;;;0.50;0.40;;;7.40;99.90;;;;;;4996204;28;20103;-81
2022/09/21 03:04:15;;;;;;;1.15;0.50;;;7.40;99.90;;;;;;5013196;28;20471;-81
2022/09/21 03:06:41;;;;;;;1.88;0.70;;;7.30;99.90;;;;;;5012322;28;20053;-81
2022/09/21 03:09:07;;;;;;;0.40;0.40;;;7.30;99.90;;;;;;5012604;28;20041;-81
2022/09/21 03:11:34;;;;;;;0.75;0.60;;;7.30;99.90;;;;;;5023364;28;20043;-81
2022/09/21 03:14:01;;;;;;;0.50;0.50;;;7.30;99.90;;;;;;5113942;28;20114;-81
2022/09/21 03:16:28;;;;;;;0.73;0.45;;;7.20;99.90;;;;;;5114134;28;20035;-81
2022/09/21 03:18:53;;;;;;;1.23;0.30;;;7.20;99.90;;;;;;5097165;28;20043;-81
2022/09/21 03:21:19;;;;;;;0.85;0.52;;;7.20;99.90;;;;;;5096743;28;20095;-81
2022/09/21 03:23:44;;;;;;;2.15;0.73;;;7.20;99.90;;;;;;5114195;28;20122;-81
2022/09/21 03:26:10;;;;;;;2.42;0.80;;;7.20;99.90;;;;;;5114125;28;20165;-81
2022/09/21 03:28:36;;;;;;;0.98;0.50;;;7.20;99.90;;;;;;5113713;28;20050;-81
2022/09/21 03:31:01;;;;;;;1.00;0.50;;;7.20;99.90;;;;;;5113686;28;20035;-81
2022/09/21 03:33:27;;;;;;;1.60;0.90;;;7.20;99.90;;;;;;5114175;28;20035;-81
2022/09/21 03:35:53;;;;;;;1.80;0.80;;;7.20;99.90;;;;;;5113348;28;20035;-81
2022/09/21 03:38:20;;;;;;;2.03;0.77;;;7.20;99.90;;;;;;5114648;27;20408;-81
2022/09/21 03:40:50;;;;;;;2.88;0.95;;;7.20;99.90;;;;;;5117813;27;20046;-81
2022/09/21 03:43:16;;;;;;;2.47;1.00;;;7.30;99.90;;;;;;5117695;27;20038;-81
2022/09/21 03:45:42;;;;;;;2.65;0.98;;;7.30;99.90;;;;;;5118253;27;20079;-81
2022/09/21 03:48:10;;;;;;;3.67;1.13;;;7.30;99.90;;;;;;5117813;27;20078;-81
2022/09/21 03:50:36;;;;;;;5.68;1.10;;;7.30;99.90;;;;;;5117556;27;20035;-81
2022/09/21 03:53:02;;;;;;;6.45;1.50;;;7.20;99.90;;;;;;5117547;27;20035;-81
2022/09/21 03:55:28;;;;;;;1.17;0.50;;;7.20;99.90;;;;;;5117783;27;20521;-81
2022/09/21 03:57:54;;;;;;;10.43;1.58;;;7.20;99.90;;;;;;5117429;27;20126;-81
2022/09/21 04:00:20;;;;;;;2.97;1.05;;;7.10;99.90;;;;;;5100394;27;20043;-81
2022/09/21 04:02:46;;;;;;;14.00;1.67;;;7.10;99.90;;;;;;5100651;27;20035;-81
2022/09/21 04:05:14;;;;;;;4.80;1.10;;;7.00;99.90;;;;;;5117300;27;20562;-81
2022/09/21 04:07:40;;;;;;;2.65;0.95;;;7.00;99.90;;;;;;5100484;27;20046;-81
2022/09/21 04:10:11;;;;;;;2.85;1.00;;;7.00;99.90;;;;;;5117582;27;20042;-81
2022/09/21 04:12:37;;;;;;;7.15;1.10;;;7.00;99.90;;;;;;5117055;27;20070;-81
2022/09/21 04:15:06;;;;;;;20.40;2.38;;;6.90;99.90;;;;;;5135745;27;20065;-81
2022/09/21 04:17:32;;;;;;;37.20;1.85;;;6.90;99.90;;;;;;5117294;27;20039;-81
2022/09/21 04:19:58;;;;;;;8.82;0.80;;;6.80;99.90;;;;;;5100285;27;20125;-81
2022/09/21 04:22:24;;;;;;;68.43;3.47;;;6.80;99.90;;;;;;5116971;27;20628;-81
2022/09/21 04:24:50;;;;;;;10.82;0.90;;;6.80;99.90;;;;;;5117639;27;20126;-81
2022/09/21 04:27:17;;;;;;;7.05;1.00;;;6.70;99.90;;;;;;5100037;27;20557;-81
2022/09/21 04:29:43;;;;;;;27.20;1.85;;;6.70;99.90;;;;;;5117012;27;20508;-81
2022/09/21 04:32:09;;;;;;;46.25;2.55;;;6.70;99.90;;;;;;5116969;27;20575;-81
2022/09/21 04:34:36;;;;;;;15.10;1.58;;;6.60;99.90;;;;;;5137606;27;20030;-81
2022/09/21 04:37:01;;;;;;;4.07;0.50;;;6.60;99.90;;;;;;5120338;27;20031;-81
2022/09/21 04:39:27;;;;;;;5.47;0.65;;;6.60;99.90;;;;;;5137628;27;20038;-81
2022/09/21 04:41:52;;;;;;;1.77;0.70;;;6.60;99.90;;;;;;5137207;27;20087;-81
2022/09/21 04:44:18;;;;;;;0.95;0.50;;;6.60;99.90;;;;;;5120457;27;20451;-81
2022/09/21 04:46:44;;;;;;;1.10;0.50;;;6.60;99.90;;;;;;5128542;27;20492;-81
2022/09/21 04:49:09;;;;;;;2.08;0.80;;;6.60;99.90;;;;;;5113311;27;20123;-81
2022/09/21 04:51:35;;;;;;;10.25;1.10;;;6.60;99.90;;;;;;5114460;27;20035;-81
2022/09/21 04:54:01;;;;;;;1.65;0.45;;;6.60;99.90;;;;;;5133552;27;20066;-80
2022/09/21 04:56:27;;;;;;;1.63;0.63;;;6.50;99.90;;;;;;5115619;27;20589;-81
2022/09/21 04:58:53;;;;;;;3.13;0.98;;;6.50;99.90;;;;;;5098524;27;20043;-81
2022/09/21 05:01:18;;;;;;;4.93;1.05;;;6.50;99.90;;;;;;5115203;27;20035;-80
2022/09/21 05:03:44;;;;;;;3.13;0.93;;;6.50;99.90;;;;;;5116104;27;20043;-81
2022/09/21 05:06:12;;;;;;;5.20;1.30;;;6.50;99.90;;;;;;5098377;27;20058;-81
2022/09/21 05:11:23;;;;;;;3.88;1.38;;;6.50;99.90;;;;;;5114661;27;20039;-81
2022/09/21 05:13:49;;;;;;;3.00;1.20;;;6.50;99.90;;;;;;5115958;27;20075;-81
2022/09/21 05:16:15;;;;;;;5.13;1.25;;;6.50;99.90;;;;;;5115417;27;20676;-81
2022/09/21 05:18:41;;;;;;;5.35;1.20;;;6.50;99.90;;;;;;5098457;27;20035;-81
2022/09/21 05:21:08;;;;;;;3.90;1.20;;;6.50;99.90;;;;;;5097475;27;20039;-81
2022/09/21 05:23:33;;;;;;;3.35;1.15;;;6.50;99.90;;;;;;5115255;27;20070;-81
2022/09/21 05:25:59;;;;;;;3.97;1.13;;;6.50;99.90;;;;;;5115584;27;20654;-81
2022/09/21 05:28:26;;;;;;;5.43;1.85;;;6.50;99.90;;;;;;5097535;27;20031;-81
2022/09/21 05:31:01;;;;;;;5.47;1.48;;;6.50;99.90;;;;;;5105856;27;20030;-81
2022/09/21 05:33:29;;;;;;;2.92;1.15;;;6.50;99.90;;;;;;5135916;27;20583;-81
2022/09/21 05:36:25;;;;;;;3.63;1.08;;;6.60;99.90;;;;;;5118517;27;20495;-81
2022/09/21 05:38:50;;;;;;;4.30;1.17;;;6.50;99.90;;;;;;5101169;27;20137;-81
2022/09/21 05:41:16;;;;;;;7.80;2.25;;;6.60;99.90;;;;;;5135144;27;20448;-81
2022/09/21 05:43:42;;;;;;;5.85;1.58;;;6.50;99.90;;;;;;5118924;27;20524;-80
2022/09/21 05:46:34;;;;;;;3.30;1.33;;;6.50;99.90;;;;;;5117766;27;20504;-81
2022/09/21 05:49:04;;;;;;;3.30;1.20;;;6.50;99.90;;;;;;5114400;27;20047;-81
2022/09/21 05:51:57;;;;;;;2.17;0.93;;;6.50;99.90;;;;;;5114515;27;20035;-81
2022/09/21 05:54:48;;;;;;;3.22;1.08;;;6.50;99.90;;;;;;5114807;27;20100;-81
2022/09/21 05:57:38;;;;;;;3.42;1.10;;;6.50;99.90;;;;;;5114685;27;20050;-81
2022/09/21 06:00:18;;;;;;;4.82;1.35;;;6.60;99.90;;;;;;5097798;27;20511;-81
2022/09/21 06:02:56;;;;;;;6.90;1.42;;;6.60;99.90;;;;;;5114071;27;20051;-81
2022/09/21 06:05:22;;;;;;;3.63;0.90;;;6.60;99.90;;;;;;5114798;27;20045;-81
2022/09/21 06:07:48;;;;;;;66.65;4.32;;;6.60;99.90;;;;;;5114505;27;20039;-81
2022/09/21 06:10:14;;;;;;;9.20;1.13;;;6.50;99.90;;;;;;5097467;27;20091;-81
2022/09/21 06:12:40;;;;;;;3.45;0.70;;;6.50;99.90;;;;;;5097180;27;20027;-81
2022/09/21 06:15:10;;;;;;;5.30;0.98;;;6.50;99.90;;;;;;5114543;27;20027;-81
2022/09/21 06:17:35;;;;;;;7.13;1.23;;;6.50;99.90;;;;;;5114513;27;20035;-81
2022/09/21 06:20:02;;;;;;;7.00;1.35;;;6.50;99.90;;;;;;5097277;27;20126;-81
2022/09/21 06:22:27;;;;;;;4.65;1.30;;;6.40;99.90;;;;;;5113922;27;20039;-81
2022/09/21 06:24:53;;;;;;;4.07;1.40;;;6.40;99.90;;;;;;5097573;27;20060;-81
2022/09/21 06:27:18;;;;;;;6.18;1.73;;;6.50;99.90;;;;;;5113809;27;20134;-81
2022/09/21 06:29:44;;;;;;;4.25;1.40;;;6.50;99.90;;;;;;5113882;27;20085;-81
2022/09/21 06:32:09;;;;;;;5.43;1.83;;;6.50;99.90;;;;;;5113712;27;20043;-81
2022/09/21 06:34:36;;;;;;;3.33;1.23;;;6.60;99.90;;;;;;5114019;27;20039;-81
2022/09/21 06:37:02;;;;;;;5.22;2.10;;;6.60;99.90;;;;;;5097072;27;20038;-81
2022/09/21 06:39:28;;;;;;;4.63;1.90;;;6.60;99.90;;;;;;5097273;27;20164;-81
2022/09/21 06:41:55;;;;;;;5.18;1.65;;;6.70;99.90;;;;;;5113778;27;20078;-81
2022/09/21 06:44:20;;;;;;;5.03;1.95;;;6.70;99.90;;;;;;5114360;27;20399;-81
2022/09/21 06:46:46;;;;;;;2.83;1.50;;;6.80;99.90;;;;;;5096973;27;20130;-81
2022/09/21 06:49:11;;;;;;;5.13;2.00;;;6.90;99.90;;;;;;5095680;27;20035;-81
2022/09/21 06:51:37;;;;;;;5.53;1.85;;;6.90;99.90;;;;;;5113458;27;20050;-81
2022/09/21 06:54:03;;;;;;;5.93;1.80;;;7.10;99.90;;;;;;5114086;27;20385;-81
2022/09/21 06:56:28;;;;;;;5.30;2.10;;;7.10;99.90;;;;;;5113351;27;20082;-81
2022/09/21 06:58:54;;;;;;;6.15;2.67;;;7.20;99.90;;;;;;5096788;27;20038;-81
2022/09/21 07:01:20;;;;;;;5.20;2.53;;;7.30;99.90;;;;;;5096391;27;20049;-81
2022/09/21 07:03:50;;;;;;;5.45;2.42;;;7.40;99.90;;;;;;5113567;28;20122;-82
2022/09/21 07:06:16;;;;;;;5.72;2.40;;;7.40;99.90;;;;;;5113916;27;20042;-82
2022/09/21 07:08:42;;;;;;;6.53;2.42;;;7.50;99.90;;;;;;5113425;28;20488;-81
2022/09/21 07:11:08;;;;;;;5.38;1.88;;;7.60;99.90;;;;;;5095908;28;20071;-81
2022/09/21 07:13:34;;;;;;;5.68;2.00;;;7.70;99.90;;;;;;5113224;28;20047;-81
2022/09/21 07:16:05;;;;;;;4.82;2.13;;;7.70;99.90;;;;;;5096550;28;20036;-81
2022/09/21 07:18:33;;;;;;;6.00;2.45;;;7.80;99.90;;;;;;5096450;28;20043;-81
2022/09/21 07:21:05;;;;;;;5.55;2.33;;;7.90;99.90;;;;;;5121349;27;20045;-81
2022/09/21 07:23:31;;;;;;;5.72;2.65;;;8.00;99.90;;;;;;5117073;27;20038;-81
2022/09/21 07:26:02;;;;;;;6.45;2.53;;;8.10;99.90;;;;;;5116497;27;20079;-81
2022/09/21 07:28:27;;;;;;;6.82;2.83;;;8.20;99.90;;;;;;5116503;27;20388;-81
2022/09/21 07:30:53;;;;;;;7.30;2.80;;;8.20;99.90;;;;;;5133433;27;20033;-82
2022/09/21 07:33:18;;;;;;;6.22;2.67;;;8.30;99.90;;;;;;5130275;27;20034;-81
2022/09/21 07:35:57;;;;;;;9.57;3.33;;;8.40;99.90;;;;;;5116878;27;20088;-81
2022/09/21 07:38:23;;;;;;;8.35;2.97;;;8.50;99.90;;;;;;5133632;27;20078;-82
2022/09/21 07:40:49;;;;;;;8.50;3.35;;;8.60;99.90;;;;;;5133288;27;20074;-81
2022/09/21 07:43:14;;;;;;;8.55;3.42;;;8.80;99.90;;;;;;5116161;27;20070;-82
2022/09/21 07:45:40;;;;;;;7.95;4.05;;;8.90;99.90;;;;;;5134451;27;20038;-81
2022/09/21 07:48:07;;;;;;;8.77;3.58;;;8.90;99.90;;;;;;5134265;27;20038;-81
2022/09/21 07:50:33;;;;;;;10.57;3.65;;;9.10;99.90;;;;;;5134207;27;20035;-82
2022/09/21 07:53:00;;;;;;;9.98;3.67;;;9.10;99.90;;;;;;5134187;27;20097;-81
2022/09/21 07:55:26;;;;;;;10.85;3.88;;;9.20;99.90;;;;;;5116732;27;20034;-82
2022/09/21 08:00:37;;;;;;;9.65;3.72;;;9.40;99.90;;;;;;5131007;27;20046;-82
2022/09/21 08:03:03;;;;;;;9.30;4.40;;;9.60;99.90;;;;;;5133868;27;20400;-82
2022/09/21 08:05:30;;;;;;;11.15;4.25;;;9.70;99.90;;;;;;5130385;27;20043;-82
2022/09/21 08:07:55;;;;;;;9.98;4.50;;;9.80;99.90;;;;;;5133372;27;20388;-81
2022/09/21 08:10:22;;;;;;;8.70;4.30;;;10.00;99.90;;;;;;5116223;27;20122;-82
2022/09/21 08:12:48;;;;;;;12.50;4.55;;;10.10;99.90;;;;;;5133281;27;20122;-81
2022/09/21 08:15:14;;;;;;;12.07;3.78;;;10.20;99.90;;;;;;5116241;27;20067;-82
2022/09/21 08:17:40;;;;;;;10.05;3.83;;;10.30;99.90;;;;;;5133344;27;20446;-82
2022/09/21 08:20:06;;;;;;;9.73;4.35;;;10.50;99.90;;;;;;5133451;27;20474;-82
2022/09/21 08:22:31;;;;;;;10.02;3.78;;;10.60;99.90;;;;;;5133278;27;20380;-82
2022/09/21 08:24:57;;;;;;;13.48;4.25;;;10.60;99.90;;;;;;5134509;27;20117;-82
2022/09/21 08:27:25;;;;;;;12.65;4.35;;;10.80;99.90;;;;;;5137197;27;20039;-82
2022/09/21 08:29:51;;;;;;;11.63;4.43;;;10.90;99.90;;;;;;5137287;27;20121;-82
2022/09/21 08:32:16;;;;;;;16.38;5.40;;;11.00;99.90;;;;;;5119509;27;20122;-82
2022/09/21 08:34:42;;;;;;;8.95;3.67;;;11.10;99.90;;;;;;5137035;27;20114;-82
2022/09/21 08:37:08;;;;;;;10.30;3.63;;;11.20;99.90;;;;;;5136871;27;20444;-82
2022/09/21 08:39:34;;;;;;;8.73;3.60;;;11.30;99.90;;;;;;5136596;27;20556;-82
2022/09/21 08:42:25;;;;;;;11.73;3.70;;;11.40;99.90;;;;;;5136769;27;20122;-82
2022/09/21 08:44:56;;;;;;;9.45;3.58;;;11.60;99.90;;;;;;5119728;27;20135;-82
2022/09/21 08:47:34;;;;;;;11.15;3.05;;;11.70;99.90;;;;;;5136375;27;20511;-82
2022/09/21 08:50:02;;;;;;;12.25;3.20;;;11.80;99.90;;;;;;5136498;27;20102;-82
2022/09/21 08:52:30;;;;;;;10.45;3.28;;;11.90;99.90;;;;;;5107864;27;20393;-82
2022/09/21 08:55:08;;;;;;;10.98;3.25;;;12.00;99.90;;;;;;5128293;27;20034;-82
2022/09/21 08:57:34;;;;;;;11.68;3.25;;;12.10;99.90;;;;;;5136351;27;20046;-82
2022/09/21 09:00:01;;;;;;;12.02;2.80;;;12.20;99.90;;;;;;5136771;27;20033;-82
2022/09/21 09:02:42;;;;;;;10.63;1.85;;;12.30;99.90;;;;;;5118905;27;20082;-81
2022/09/21 09:05:36;;;;;;;9.25;2.00;;;12.40;99.90;;;;;;5136559;27;20031;-82
2022/09/21 09:08:31;;;;;;;11.35;2.75;;;12.50;99.90;;;;;;5118899;27;20069;-82
2022/09/21 09:11:28;;;;;;;8.00;2.10;;;12.60;99.90;;;;;;5136085;27;20075;-82
2022/09/21 09:14:20;;;;;;;7.97;1.80;;;12.70;99.90;;;;;;5136263;27;20492;-82
2022/09/21 09:17:20;;;;;;;12.18;2.15;;;12.70;99.90;;;;;;5136027;27;20039;-82
2022/09/21 09:20:09;;;;;;;10.40;2.65;;;12.80;99.90;;;;;;5136203;27;20034;-82
2022/09/21 09:22:40;;;;;;;8.93;2.03;;;13.00;99.90;;;;;;5118581;27;20035;-82
2022/09/21 09:25:17;;;;;;;9.32;2.50;;;13.10;99.90;;;;;;5135746;27;20038;-82
2022/09/21 09:27:45;;;;;;;10.73;1.80;;;13.20;99.90;;;;;;5136112;27;20114;-82
2022/09/21 09:30:25;;;;;;;10.73;1.80;;;13.30;99.90;;;;;;5118989;27;20038;-82
2022/09/21 09:33:20;;;;;;;10.65;1.83;;;13.30;99.90;;;;;;5118377;27;20491;-82
2022/09/21 09:35:51;;;;;;;12.45;2.72;;;13.40;99.90;;;;;;5135889;27;20038;-82
2022/09/21 09:38:37;;;;;;;12.63;2.17;;;13.50;99.90;;;;;;5135361;27;20042;-82
2022/09/21 09:41:21;;;;;;;10.48;1.95;;;13.60;99.90;;;;;;5135209;27;20041;-82
2022/09/21 09:44:09;;;;;;;10.20;1.83;;;13.70;99.90;;;;;;5118957;27;20129;-82
2022/09/21 09:46:53;;;;;;;6.93;1.50;;;13.80;99.90;;;;;;5118526;27;20073;-82
2022/09/21 09:49:32;;;;;;;11.40;2.58;;;13.80;99.90;;;;;;5135568;27;20453;-82
2022/09/21 09:51:57;;;;;;;11.75;2.30;;;14.00;99.90;;;;;;5135239;27;20488;-82
2022/09/21 09:54:28;;;;;;;7.18;1.50;;;14.10;99.90;;;;;;5135738;27;20047;-82
2022/09/21 09:56:53;;;;;;;9.38;1.55;;;14.20;99.90;;;;;;5153312;27;20507;-82
2022/09/21 09:59:29;;;;;;;6.90;1.20;;;14.20;99.90;;;;;;5117682;27;20075;-82
2022/09/21 10:02:17;;;;;;;11.30;2.00;;;14.30;99.90;;;;;;5135268;27;20492;-82
2022/09/21 10:04:53;;;;;;;11.48;2.03;;;14.40;99.90;;;;;;5135031;27;20050;-82
2022/09/21 10:07:19;;;;;;;8.82;1.52;;;14.50;99.90;;;;;;5135009;27;20074;-82
2022/09/21 10:09:44;;;;;;;10.00;1.33;;;14.60;99.90;;;;;;5117728;27;20464;-82
2022/09/21 10:12:23;;;;;;;7.20;1.40;;;14.70;99.90;;;;;;5117854;27;20038;-83
2022/09/21 10:14:51;;;;;;;9.13;1.48;;;14.80;99.90;;;;;;5134594;27;20419;-82
2022/09/21 10:17:17;;;;;;;7.32;1.45;;;14.90;99.90;;;;;;5134784;27;20046;-82
2022/09/21 10:19:44;;;;;;;8.93;1.92;;;14.90;99.90;;;;;;5135440;27;20473;-82
2022/09/21 10:22:19;;;;;;;9.20;1.80;;;15.00;99.90;;;;;;5134338;27;20129;-82
2022/09/21 10:24:49;;;;;;;8.82;1.80;;;15.20;99.90;;;;;;5135306;27;20468;-82
2022/09/21 10:27:25;;;;;;;7.07;1.60;;;15.30;99.90;;;;;;5134761;27;20038;-82
2022/09/21 10:29:51;;;;;;;8.45;1.80;;;15.50;99.90;;;;;;5117437;27;20030;-83
2022/09/21 10:32:18;;;;;;;7.20;1.45;;;15.60;99.90;;;;;;5117357;27;20034;-82
2022/09/21 10:35:03;;;;;;;8.15;1.70;;;15.70;99.90;;;;;;5117734;27;20083;-82
2022/09/21 10:37:29;;;;;;;7.68;1.27;;;15.80;99.90;;;;;;5117388;27;20095;-83
2022/09/21 10:39:56;;;;;;;10.23;1.90;;;15.90;99.90;;;;;;5134474;27;20047;-83
2022/09/21 10:42:22;;;;;;;9.77;2.00;;;16.00;99.90;;;;;;5134332;27;20046;-82
2022/09/21 10:45:02;;;;;;;8.63;2.15;;;16.10;99.90;;;;;;5134141;27;20046;-82
2022/09/21 10:47:49;;;;;;;10.82;1.65;;;16.10;99.90;;;;;;5152652;27;20055;-82
2022/09/21 10:50:45;;;;;;;10.75;1.98;;;16.00;99.90;;;;;;5127120;27;20043;-83
2022/09/21 10:53:32;;;;;;;6.90;1.70;;;15.90;99.90;;;;;;5098805;27;20054;-82
2022/09/21 10:56:27;;;;;;;6.97;1.50;;;15.80;99.90;;;;;;5116485;27;20038;-83
2022/09/21 10:59:19;;;;;;;10.48;2.13;;;15.90;99.90;;;;;;5039074;28;20051;-83
2022/09/21 11:01:47;;;;;;;8.17;1.40;;;16.00;99.90;;;;;;5018553;28;20036;-82
2022/09/21 11:04:44;;;;;;;8.30;1.50;;;16.10;99.90;;;;;;5040201;28;20052;-83
2022/09/21 11:07:39;;;;;;;8.38;2.05;;;16.20;99.90;;;;;;5023332;28;20047;-83
2022/09/21 11:10:26;;;;;;;7.50;1.65;;;16.40;99.90;;;;;;4972824;28;20061;-83
2022/09/21 11:13:15;;;;;;;8.57;1.63;;;16.50;99.90;;;;;;4972898;28;20448;-83
2022/09/21 11:15:58;;;;;;;11.13;1.92;;;16.60;99.90;;;;;;4972387;28;20092;-83
2022/09/21 11:18:43;;;;;;;8.02;1.63;;;16.70;99.90;;;;;;4973754;28;20035;-83
2022/09/21 11:21:16;;;;;;;9.38;2.08;;;16.70;99.90;;;;;;4973139;28;20056;-83
2022/09/21 11:23:44;;;;;;;8.50;1.80;;;16.80;99.90;;;;;;4973392;28;20049;-83
2022/09/21 11:26:13;;;;;;;9.30;1.77;;;16.90;99.90;;;;;;4973530;28;20046;-83
2022/09/21 11:28:46;;;;;;;8.45;2.05;;;17.00;99.90;;;;;;4973326;28;20097;-83
2022/09/21 11:31:36;;;;;;;8.80;1.77;;;17.10;99.90;;;;;;4973364;28;20042;-83
2022/09/21 11:34:26;;;;;;;7.05;1.52;;;17.20;99.90;;;;;;4973552;28;20074;-83
2022/09/21 11:37:00;;;;;;;8.15;1.80;;;17.30;99.90;;;;;;5032231;28;20514;-83
2022/09/21 11:40:09;;;;;;;10.15;2.20;;;17.50;99.90;;;;;;5032212;28;20541;-83
2022/09/21 11:42:39;;;;;;;11.95;2.45;;;17.60;98.90;;;;;;4992667;28;20133;-83
2022/09/21 11:45:36;;;;;;;7.97;1.83;;;17.70;97.50;;;;;;4992771;28;20057;-83
2022/09/21 11:48:21;;;;;;;8.50;1.50;;;17.70;95.10;;;;;;5010716;28;20049;-83
2022/09/21 11:50:53;;;;;;;9.93;1.90;;;17.70;93.60;;;;;;5012316;28;20045;-83
2022/09/21 11:53:52;;;;;;;5.22;1.23;;;17.50;90.20;;;;;;5012525;28;20041;-83
2022/09/21 11:56:43;;;;;;;8.13;1.52;;;17.50;94.20;;;;;;4996001;28;20136;-83
2022/09/21 11:59:41;;;;;;;8.30;1.52;;;17.60;93.20;;;;;;5012471;28;20056;-83
2022/09/21 12:02:36;;;;;;;8.05;1.55;;;17.60;93.00;;;;;;5015682;28;20038;-83
2022/09/21 12:05:16;;;;;;;5.18;1.30;;;17.80;92.30;;;;;;5016136;28;20046;-83
2022/09/21 12:08:11;;;;;;;6.25;1.30;;;17.80;91.60;;;;;;5015823;28;20048;-83
2022/09/21 12:11:12;;;;;;;4.70;1.08;;;17.80;87.00;;;;;;5016182;28;20053;-83
2022/09/21 12:13:59;;;;;;;7.55;1.50;;;17.70;86.70;;;;;;4999439;28;20538;-83
2022/09/21 12:16:48;;;;;;;7.25;1.30;;;17.80;92.50;;;;;;5082680;27;20404;-83
2022/09/21 12:19:43;;;;;;;9.68;1.60;;;17.90;90.70;;;;;;5134643;27;20066;-83
2022/09/21 12:22:16;;;;;;;6.22;1.25;;;18.20;88.40;;;;;;5115674;27;20510;-82
2022/09/21 12:25:12;;;;;;;10.23;1.55;;;18.30;89.80;;;;;;5116979;27;20116;-83
2022/09/21 12:27:41;;;;;;;6.45;1.25;;;18.40;84.10;;;;;;5112064;27;20133;-83
2022/09/21 12:30:15;;;;;;;6.72;1.38;;;18.60;86.90;;;;;;5116328;27;20039;-83
2022/09/21 12:32:54;;;;;;;6.95;1.45;;;18.80;87.60;;;;;;5116456;27;20035;-83
2022/09/21 12:35:40;;;;;;;11.02;1.63;;;18.80;82.40;;;;;;5116438;27;20083;-82
2022/09/21 12:38:39;;;;;;;6.70;1.40;;;18.80;79.00;;;;;;5099597;27;20043;-83
2022/09/21 12:41:20;;;;;;;7.22;1.30;;;18.90;79.80;;;;;;5099127;27;20486;-83
2022/09/21 12:44:11;;;;;;;6.57;1.27;;;19.00;77.60;;;;;;5099003;27;20126;-83
2022/09/21 12:46:42;;;;;;;5.50;1.77;;;19.10;73.20;;;;;;5102125;27;20039;-83
2022/09/21 12:49:16;;;;;;;8.45;1.40;;;19.30;76.00;;;;;;5134136;27;20130;-83
2022/09/21 12:51:54;;;;;;;6.80;1.20;;;19.30;72.30;;;;;;5136421;27;20488;-83
2022/09/21 12:54:41;;;;;;;6.25;1.35;;;19.40;71.60;;;;;;5136805;27;20030;-83
2022/09/21 12:57:24;;;;;;;9.13;1.60;;;19.60;74.20;;;;;;5136526;27;20750;-83
2022/09/21 13:00:04;;;;;;;8.07;1.65;;;19.90;74.30;;;;;;5135785;27;20508;-83
2022/09/21 13:02:39;;;;;;;8.85;1.60;;;20.10;70.50;;;;;;5136293;27;20049;-83
2022/09/21 13:05:15;;;;;;;5.20;1.33;;;20.30;70.10;;;;;;5118247;27;20040;-83
2022/09/21 13:07:53;;;;;;;8.75;1.77;;;20.50;70.60;;;;;;5103218;27;20039;-83
2022/09/21 13:10:38;;;;;;;6.45;1.27;;;20.70;66.80;;;;;;5107631;27;20162;-83
2022/09/21 13:13:07;;;;;;;5.97;1.15;;;20.90;67.80;;;;;;5105955;27;20204;-83
2022/09/21 13:15:46;;;;;;;7.32;1.38;;;21.70;67.60;;;;;;5105826;27;20376;-83
2022/09/21 13:18:20;;;;;;;6.45;1.30;;;22.10;66.50;;;;;;5136504;27;20478;-83
2022/09/21 13:20:45;;;;;;;7.95;1.27;;;22.30;63.30;;;;;;5136083;27;20053;-83
2022/09/21 13:23:19;;;;;;;7.25;1.30;;;22.80;60.70;;;;;;5118549;27;20117;-83
2022/09/21 13:25:57;;;;;;;5.70;1.30;;;24.00;60.00;;;;;;5126343;27;20061;-83
2022/09/21 13:28:40;;;;;;;4.82;1.00;;;25.30;55.60;;;;;;5098161;27;20488;-83